Time;durP1;ratioP1;P1;durP2;ratioP2;P2;SDS_P1;SDS_P2;PMS_P1;PMS_P2;Temp;Humidity;BMP_temperature;BMP_pressure;BME280_temperature;BME280_humidity;BME280_pressure;Samples;Min_cycle;Max_cycle;Signal;HPM_P1;HPM_P2
2024/04/02 00:00:29;;;;;;;1.00;0.75;;;10.50;99.90;;;;;;4991001;28;20030;-85
2024/04/02 00:02:54;;;;;;;1.65;0.95;;;10.50;99.90;;;;;;4991080;28;20584;-83
2024/04/02 00:05:20;;;;;;;2.58;1.17;;;11.00;99.90;;;;;;4989617;28;20750;-83
2024/04/02 00:07:45;;;;;;;3.20;1.00;;;10.50;99.90;;;;;;4983772;28;20109;-82
2024/04/02 00:10:11;;;;;;;2.95;1.10;;;10.40;99.90;;;;;;4982790;28;20026;-84
2024/04/02 00:12:36;;;;;;;1.48;1.10;;;11.20;99.90;;;;;;4972460;28;20026;-83
2024/04/02 00:15:05;;;;;;;1.73;1.00;;;10.30;99.90;;;;;;4969623;28;20037;-84
2024/04/02 00:17:31;;;;;;;1.20;1.05;;;10.40;99.90;;;;;;4969621;28;20118;-84
2024/04/02 00:19:57;;;;;;;3.90;1.48;;;11.10;99.90;;;;;;4969690;28;20424;-83
2024/04/02 00:22:22;;;;;;;1.77;0.88;;;11.20;99.90;;;;;;4970257;28;20503;-83
2024/04/02 00:24:48;;;;;;;2.65;1.67;;;10.40;99.90;;;;;;4970894;28;20490;-83
2024/04/02 00:27:13;;;;;;;3.40;1.35;;;10.40;99.90;;;;;;4970346;28;20049;-83
2024/04/02 00:29:39;;;;;;;1.85;0.95;;;10.40;99.90;;;;;;4986543;28;20080;-83
2024/04/02 00:32:05;;;;;;;1.63;1.00;;;10.40;99.90;;;;;;4987278;28;20026;-84
2024/04/02 00:34:30;;;;;;;1.42;1.17;;;10.40;99.90;;;;;;4988063;28;20033;-85
2024/04/02 00:36:56;;;;;;;2.88;1.02;;;11.40;99.90;;;;;;4985933;28;20503;-83
2024/04/02 00:39:22;;;;;;;1.25;0.88;;;10.30;99.90;;;;;;4985756;28;20034;-84
2024/04/02 00:41:47;;;;;;;2.38;1.20;;;11.00;99.90;;;;;;4985266;28;20437;-85
2024/04/02 00:44:13;;;;;;;1.40;1.10;;;10.30;99.90;;;;;;4988633;28;20049;-84
2024/04/02 00:46:47;;;;;;;2.03;1.20;;;11.30;99.90;;;;;;4988706;28;20022;-84
2024/04/02 00:49:13;;;;;;;1.58;1.33;;;11.50;99.90;;;;;;4971990;28;20022;-84
2024/04/02 00:51:38;;;;;;;2.10;1.33;;;11.50;99.90;;;;;;4983020;28;20037;-84
2024/04/02 00:54:04;;;;;;;2.55;1.50;;;11.90;99.90;;;;;;4987148;28;20028;-83
2024/04/02 00:56:30;;;;;;;2.88;1.27;;;10.20;99.90;;;;;;4988113;28;20054;-84
2024/04/02 00:58:56;;;;;;;3.15;1.17;;;11.20;99.90;;;;;;4988345;28;20042;-84
2024/04/02 01:01:21;;;;;;;3.67;1.23;;;10.10;99.90;;;;;;4988298;28;20027;-85
2024/04/02 01:03:47;;;;;;;1.75;1.33;;;10.30;99.90;;;;;;4989292;28;20473;-83
2024/04/02 01:06:12;;;;;;;1.45;1.05;;;11.90;99.90;;;;;;4990543;28;20394;-84
2024/04/02 01:08:38;;;;;;;2.38;1.52;;;11.00;99.90;;;;;;5000032;28;20046;-84
2024/04/02 01:11:03;;;;;;;2.63;1.58;;;10.00;99.90;;;;;;4974872;28;20057;-84
2024/04/02 01:13:29;;;;;;;1.90;1.42;;;10.10;99.90;;;;;;4969854;28;20411;-84
2024/04/02 01:16:03;;;;;;;3.70;1.40;;;10.80;99.90;;;;;;4969676;28;20401;-84
2024/04/02 01:18:29;;;;;;;2.58;1.00;;;11.10;99.90;;;;;;4988091;28;20070;-84
2024/04/02 01:20:55;;;;;;;3.30;1.17;;;10.50;99.90;;;;;;4985394;28;20038;-83
2024/04/02 01:23:22;;;;;;;1.65;1.30;;;12.10;99.90;;;;;;4988566;28;20035;-84
2024/04/02 01:25:47;;;;;;;4.28;1.67;;;10.50;99.90;;;;;;4988544;28;20046;-84
2024/04/02 01:28:13;;;;;;;2.78;1.20;;;10.60;99.90;;;;;;4987846;28;20030;-85
2024/04/02 01:30:39;;;;;;;5.88;1.65;;;10.30;99.90;;;;;;4984895;28;20058;-84
2024/04/02 01:33:14;;;;;;;2.47;1.45;;;9.70;99.90;;;;;;4984040;28;20094;-84
2024/04/02 01:35:40;;;;;;;1.60;1.38;;;10.20;99.90;;;;;;4987419;28;20501;-84
2024/04/02 01:38:06;;;;;;;1.65;1.30;;;11.40;99.90;;;;;;4987666;28;20038;-84
2024/04/02 01:40:31;;;;;;;3.03;1.45;;;9.90;99.90;;;;;;4987446;28;20332;-84
2024/04/02 01:42:57;;;;;;;3.70;1.75;;;10.60;99.90;;;;;;4988381;28;20046;-85
2024/04/02 01:45:22;;;;;;;3.28;1.33;;;10.10;99.90;;;;;;4987917;28;20166;-85
2024/04/02 01:47:48;;;;;;;2.60;1.58;;;9.90;99.90;;;;;;4988409;28;20022;-84
2024/04/02 01:50:14;;;;;;;1.67;1.48;;;10.00;99.90;;;;;;4976908;28;20035;-84
2024/04/02 01:52:39;;;;;;;1.45;1.35;;;10.90;99.90;;;;;;4987837;28;20027;-85
2024/04/02 01:55:05;;;;;;;6.78;1.88;;;10.00;99.90;;;;;;4979127;28;20077;-85
2024/04/02 01:57:30;;;;;;;8.65;1.58;;;10.00;99.90;;;;;;4985922;28;20053;-84
2024/04/02 01:59:56;;;;;;;3.03;1.80;;;10.00;99.90;;;;;;4988036;28;20034;-85
2024/04/02 02:02:21;;;;;;;5.90;1.83;;;10.00;99.90;;;;;;4987791;28;20023;-84
2024/04/02 02:04:47;;;;;;;4.20;2.13;;;9.80;99.90;;;;;;4987728;28;20084;-84
2024/04/02 02:07:12;;;;;;;2.20;1.80;;;9.80;99.90;;;;;;4988915;28;20402;-84
2024/04/02 02:09:38;;;;;;;6.65;1.80;;;10.00;99.90;;;;;;4986546;28;20218;-83
2024/04/02 02:12:04;;;;;;;3.42;1.48;;;9.90;99.90;;;;;;4979624;28;20039;-84
2024/04/02 02:14:29;;;;;;;3.08;1.88;;;9.90;99.90;;;;;;4991094;28;20022;-83
2024/04/02 02:16:55;;;;;;;5.35;1.58;;;9.90;99.90;;;;;;4990865;28;20026;-84
2024/04/02 02:19:20;;;;;;;7.10;1.80;;;9.90;99.90;;;;;;4991456;28;20158;-83
2024/04/02 02:21:58;;;;;;;4.25;2.00;;;9.80;99.90;;;;;;4989909;28;20081;-84
2024/04/02 02:24:24;;;;;;;4.43;2.55;;;10.20;99.90;;;;;;4990263;28;20034;-84
2024/04/02 02:26:51;;;;;;;5.00;2.22;;;9.80;99.90;;;;;;4997268;28;20536;-83
2024/04/02 02:29:22;;;;;;;2.83;1.85;;;9.50;99.90;;;;;;4997368;28;20121;-84
2024/04/02 02:31:48;;;;;;;9.15;2.65;;;11.00;99.90;;;;;;4985183;28;20609;-84
2024/04/02 02:34:13;;;;;;;3.10;1.73;;;9.80;99.90;;;;;;4977728;28;20031;-83
2024/04/02 02:36:39;;;;;;;3.40;1.85;;;9.60;99.90;;;;;;4990816;28;20049;-83
2024/04/02 02:39:04;;;;;;;5.60;1.95;;;9.90;99.90;;;;;;4989798;28;20508;-84
2024/04/02 02:41:30;;;;;;;2.47;1.60;;;9.80;99.90;;;;;;4991897;28;20033;-85
2024/04/02 02:43:56;;;;;;;4.45;1.50;;;9.70;99.90;;;;;;4991612;28;20122;-84
2024/04/02 02:46:22;;;;;;;3.72;1.88;;;9.70;99.90;;;;;;4991019;28;20031;-84
2024/04/02 02:48:48;;;;;;;6.72;2.10;;;9.60;99.90;;;;;;4990667;28;20500;-83
2024/04/02 02:51:13;;;;;;;2.47;1.50;;;9.70;99.90;;;;;;4989593;28;20022;-84
2024/04/02 02:53:39;;;;;;;4.35;1.75;;;9.70;99.90;;;;;;4988568;28;20337;-84
2024/04/02 02:56:05;;;;;;;2.70;1.88;;;9.70;99.90;;;;;;4984644;28;20391;-84
2024/04/02 02:58:30;;;;;;;3.38;1.80;;;9.70;99.90;;;;;;4990305;28;20042;-85
2024/04/02 03:00:56;;;;;;;3.30;1.90;;;10.20;99.90;;;;;;4988674;28;20026;-84
2024/04/02 03:03:22;;;;;;;1.45;1.30;;;9.80;99.90;;;;;;4991106;28;20030;-85
2024/04/02 03:05:54;;;;;;;3.83;1.88;;;9.80;99.90;;;;;;4990900;28;20458;-84
2024/04/02 03:08:20;;;;;;;4.32;2.65;;;9.80;99.90;;;;;;4991409;28;20041;-85
2024/04/02 03:11:06;;;;;;;2.80;1.38;;;9.70;99.90;;;;;;4989448;28;20123;-84
2024/04/02 03:13:32;;;;;;;4.30;1.95;;;9.70;99.90;;;;;;4989968;28;20137;-85
2024/04/02 03:15:58;;;;;;;5.15;2.00;;;9.70;99.90;;;;;;4984052;28;20211;-85
2024/04/02 03:18:24;;;;;;;4.18;2.35;;;9.70;99.90;;;;;;4990974;28;20478;-84
2024/04/02 03:20:50;;;;;;;3.47;1.70;;;9.70;99.90;;;;;;4991288;28;20054;-85
2024/04/02 03:23:20;;;;;;;7.60;1.98;;;9.60;99.90;;;;;;4990107;28;20077;-84
2024/04/02 03:26:12;;;;;;;7.05;1.95;;;9.70;99.90;;;;;;4980254;28;20019;-86
2024/04/02 03:28:39;;;;;;;4.80;1.73;;;9.80;99.90;;;;;;4968756;28;20126;-85
2024/04/02 03:31:04;;;;;;;4.70;2.33;;;9.60;99.90;;;;;;4971523;28;20030;-85
2024/04/02 03:33:30;;;;;;;4.63;1.70;;;11.40;99.90;;;;;;4988750;28;20030;-82
2024/04/02 03:36:06;;;;;;;6.43;2.13;;;9.50;99.90;;;;;;4988635;28;20280;-85
2024/04/02 03:38:33;;;;;;;4.18;1.90;;;9.60;99.90;;;;;;4988610;28;20564;-83
2024/04/02 03:41:08;;;;;;;3.90;1.77;;;9.80;99.90;;;;;;4986066;28;20065;-84
2024/04/02 03:43:37;;;;;;;2.95;1.90;;;10.00;99.90;;;;;;4990161;28;20109;-83
2024/04/02 03:46:05;;;;;;;4.35;1.98;;;9.60;99.90;;;;;;4994847;28;20073;-84
2024/04/02 03:48:30;;;;;;;4.53;2.00;;;10.10;99.90;;;;;;4992015;28;20031;-83
2024/04/02 03:50:56;;;;;;;3.75;1.80;;;9.60;99.90;;;;;;4990521;28;20891;-84
2024/04/02 03:53:22;;;;;;;3.03;1.63;;;9.50;99.90;;;;;;4989550;28;20027;-84
2024/04/02 03:55:47;;;;;;;3.25;1.92;;;9.60;99.90;;;;;;4988079;28;20101;-83
2024/04/02 03:58:13;;;;;;;2.80;1.75;;;10.50;99.90;;;;;;4990007;28;20041;-84
2024/04/02 04:00:42;;;;;;;5.72;2.30;;;9.60;99.90;;;;;;4989275;28;20045;-83
2024/04/02 04:03:08;;;;;;;3.63;1.65;;;9.60;99.90;;;;;;4983295;28;20042;-84
2024/04/02 04:05:33;;;;;;;2.90;1.95;;;9.60;99.90;;;;;;4989944;28;20033;-84
2024/04/02 04:07:59;;;;;;;8.60;2.15;;;8.90;99.90;;;;;;4989064;28;20541;-84
2024/04/02 04:10:24;;;;;;;2.88;1.65;;;9.60;99.90;;;;;;4987055;28;20427;-84
2024/04/02 04:12:50;;;;;;;3.70;1.85;;;9.50;99.90;;;;;;4969771;28;20477;-83
2024/04/02 04:15:15;;;;;;;3.67;1.90;;;9.60;99.90;;;;;;4969689;28;20407;-84
2024/04/02 04:17:41;;;;;;;5.82;1.85;;;10.60;99.90;;;;;;4969385;28;20039;-84
2024/04/02 04:20:07;;;;;;;2.80;1.45;;;9.60;99.90;;;;;;4970109;28;20056;-83
2024/04/02 04:22:33;;;;;;;2.67;1.63;;;9.60;99.90;;;;;;4974216;28;20231;-87
2024/04/02 04:25:03;;;;;;;3.08;1.58;;;9.60;99.90;;;;;;4982704;28;20121;-84
2024/04/02 04:27:32;;;;;;;4.28;1.77;;;9.60;99.90;;;;;;4988331;28;20144;-84
2024/04/02 04:29:59;;;;;;;5.10;2.10;;;9.60;99.90;;;;;;4987647;28;20513;-84
2024/04/02 04:32:24;;;;;;;2.60;1.58;;;9.50;99.90;;;;;;4988189;28;20723;-84
2024/04/02 04:34:50;;;;;;;3.15;1.88;;;9.50;99.90;;;;;;4988678;28;20033;-83
2024/04/02 04:37:15;;;;;;;1.98;1.33;;;10.30;99.90;;;;;;4988182;28;20361;-85
2024/04/02 04:39:41;;;;;;;5.32;1.67;;;9.30;99.90;;;;;;4989087;28;20121;-85
2024/04/02 04:42:07;;;;;;;2.05;1.55;;;9.40;99.90;;;;;;4988950;28;20402;-83
2024/04/02 04:44:32;;;;;;;3.38;1.58;;;9.50;99.90;;;;;;4988384;28;20026;-82
2024/04/02 04:46:59;;;;;;;2.90;1.77;;;9.50;99.90;;;;;;4984433;28;20053;-84
2024/04/02 04:49:24;;;;;;;2.70;1.75;;;9.40;99.90;;;;;;4982896;28;20485;-84
2024/04/02 04:51:50;;;;;;;4.43;2.15;;;9.40;99.90;;;;;;4969293;28;20030;-85
2024/04/02 04:54:16;;;;;;;3.83;1.67;;;9.40;99.90;;;;;;4971488;28;20135;-86
2024/04/02 04:56:41;;;;;;;6.47;2.08;;;9.40;99.90;;;;;;4970500;28;20050;-87
2024/04/02 04:59:07;;;;;;;6.15;1.67;;;9.40;99.90;;;;;;4968998;28;20439;-85
2024/04/02 05:01:32;;;;;;;3.30;1.40;;;9.40;99.90;;;;;;4977648;28;20126;-85
2024/04/02 05:03:58;;;;;;;2.92;1.77;;;9.40;99.90;;;;;;4989000;28;20070;-84
2024/04/02 05:06:23;;;;;;;2.95;1.63;;;9.40;99.90;;;;;;4997373;28;20027;-82
2024/04/02 05:08:49;;;;;;;4.50;1.90;;;9.40;99.90;;;;;;4992099;28;20500;-83
2024/04/02 05:11:15;;;;;;;5.43;1.92;;;9.50;99.90;;;;;;4984759;28;20030;-85
2024/04/02 05:13:40;;;;;;;7.25;2.05;;;9.50;99.90;;;;;;4987777;28;20390;-86
2024/04/02 05:16:07;;;;;;;3.83;1.60;;;10.30;99.90;;;;;;4988532;28;20141;-85
2024/04/02 05:18:33;;;;;;;8.07;2.17;;;9.50;99.90;;;;;;4987706;28;20042;-85
2024/04/02 05:20:59;;;;;;;6.18;2.33;;;9.50;99.90;;;;;;4986510;28;20022;-85
2024/04/02 05:23:26;;;;;;;6.35;2.05;;;9.50;99.90;;;;;;4988287;28;20045;-85
2024/04/02 05:25:57;;;;;;;3.70;1.58;;;9.50;99.90;;;;;;4987416;28;20794;-85
2024/04/02 05:28:41;;;;;;;4.47;1.92;;;9.50;99.90;;;;;;4988090;28;20113;-86
2024/04/02 05:31:07;;;;;;;7.22;2.00;;;8.90;99.90;;;;;;4975567;28;20049;-86
2024/04/02 05:33:33;;;;;;;11.75;2.53;;;9.40;99.90;;;;;;4987867;28;20034;-86
2024/04/02 05:35:58;;;;;;;7.28;2.22;;;9.40;99.90;;;;;;4987861;28;20493;-86
2024/04/02 05:38:24;;;;;;;4.07;1.73;;;9.50;99.90;;;;;;4988797;28;20038;-89
2024/04/02 05:40:50;;;;;;;5.70;1.75;;;9.50;99.90;;;;;;4988628;28;20023;-87
2024/04/02 05:43:31;;;;;;;8.07;1.90;;;9.30;99.90;;;;;;4992871;28;20060;-87
2024/04/02 05:45:56;;;;;;;6.72;1.65;;;10.50;99.90;;;;;;4985170;28;20030;-89
2024/04/02 05:48:22;;;;;;;3.50;1.80;;;9.30;99.90;;;;;;4977097;28;20079;-88
2024/04/02 05:51:00;;;;;;;5.32;1.95;;;9.60;99.90;;;;;;4978503;28;20050;-89
2024/04/02 05:53:34;;;;;;;5.50;2.15;;;9.60;99.90;;;;;;4982526;28;20566;-88
2024/04/02 05:56:06;;;;;;;8.88;2.17;;;11.40;99.90;;;;;;4982878;28;20080;-87
2024/04/02 05:58:32;;;;;;;6.00;2.00;;;9.60;99.90;;;;;;4975988;28;20031;-87
2024/04/02 06:01:05;;;;;;;8.52;1.83;;;11.00;99.90;;;;;;4990438;28;20031;-89
2024/04/02 06:03:30;;;;;;;4.80;2.22;;;9.70;99.90;;;;;;4988635;28;20035;-87
2024/04/02 06:05:56;;;;;;;7.75;2.17;;;9.70;99.90;;;;;;4988792;28;20089;-88
2024/04/02 06:08:22;;;;;;;5.20;1.73;;;9.70;99.90;;;;;;4983178;28;20039;-87
2024/04/02 06:10:48;;;;;;;8.57;1.92;;;9.70;99.90;;;;;;4981181;28;20073;-87
2024/04/02 06:13:13;;;;;;;6.75;1.75;;;9.70;99.90;;;;;;4993983;28;20030;-86
2024/04/02 06:15:54;;;;;;;5.30;2.10;;;11.60;99.90;;;;;;4981792;28;20031;-86
2024/04/02 06:18:22;;;;;;;10.23;2.22;;;9.70;99.90;;;;;;4995306;28;20283;-86
2024/04/02 06:20:59;;;;;;;9.05;2.03;;;10.80;99.90;;;;;;4994738;28;20085;-87
2024/04/02 06:23:25;;;;;;;6.75;1.95;;;11.90;99.90;;;;;;4986075;28;20054;-85
2024/04/02 06:25:53;;;;;;;8.32;1.90;;;9.50;99.90;;;;;;4994792;28;20053;-86
2024/04/02 06:28:18;;;;;;;6.05;2.05;;;9.70;99.90;;;;;;4999261;28;20045;-86
2024/04/02 06:30:44;;;;;;;7.50;2.15;;;9.10;99.90;;;;;;4989180;28;20445;-86
2024/04/02 06:33:10;;;;;;;4.45;2.33;;;9.10;99.90;;;;;;4995682;28;20035;-84
2024/04/02 06:35:36;;;;;;;9.57;2.53;;;9.70;99.90;;;;;;4990925;28;20031;-85
2024/04/02 06:38:01;;;;;;;14.10;2.63;;;10.80;99.90;;;;;;4977028;28;20051;-86
2024/04/02 06:40:27;;;;;;;8.23;2.10;;;9.60;99.90;;;;;;4987033;28;20052;-86
2024/04/02 06:42:52;;;;;;;10.73;2.42;;;9.10;99.90;;;;;;4995142;28;20030;-87
2024/04/02 06:45:18;;;;;;;6.65;2.08;;;9.00;99.90;;;;;;4994219;28;20105;-86
2024/04/02 06:47:44;;;;;;;7.07;2.00;;;9.70;99.90;;;;;;4995414;28;20061;-86
2024/04/02 06:50:09;;;;;;;11.75;3.33;;;9.70;99.90;;;;;;4995661;28;20419;-86
2024/04/02 06:52:35;;;;;;;6.82;2.38;;;9.40;99.90;;;;;;4995122;28;20475;-85
2024/04/02 06:55:01;;;;;;;11.10;2.10;;;10.80;99.90;;;;;;4994346;28;20022;-84
2024/04/02 06:57:26;;;;;;;9.57;2.15;;;10.40;99.90;;;;;;4982923;28;20549;-85
2024/04/02 06:59:52;;;;;;;12.20;2.30;;;9.80;99.90;;;;;;4994107;28;20026;-84
2024/04/02 07:02:17;;;;;;;7.32;2.42;;;9.80;99.90;;;;;;4995932;28;20113;-87
2024/04/02 07:04:43;;;;;;;14.13;3.15;;;9.90;99.90;;;;;;4996478;28;20454;-87
2024/04/02 07:07:09;;;;;;;12.55;2.55;;;10.20;99.90;;;;;;5001749;28;20022;-88
2024/04/02 07:09:36;;;;;;;18.60;2.55;;;10.10;99.90;;;;;;4997479;28;20089;-88
2024/04/02 07:12:01;;;;;;;8.43;2.65;;;10.10;99.90;;;;;;4995444;28;20031;-85
2024/04/02 07:14:27;;;;;;;7.70;2.47;;;10.20;99.90;;;;;;4994764;28;20023;-85
2024/04/02 07:16:54;;;;;;;6.25;2.20;;;10.10;99.90;;;;;;4995232;28;20019;-90
2024/04/02 07:19:20;;;;;;;9.25;2.80;;;10.00;99.90;;;;;;4992917;28;20827;-88
2024/04/02 07:21:46;;;;;;;7.85;3.33;;;10.10;99.90;;;;;;4994676;28;20034;-83
2024/04/02 07:24:11;;;;;;;9.73;2.70;;;10.10;99.90;;;;;;4977926;28;20034;-84
2024/04/02 07:26:37;;;;;;;17.58;2.83;;;10.30;99.90;;;;;;4988298;28;20113;-87
2024/04/02 07:29:02;;;;;;;10.05;2.92;;;10.10;99.90;;;;;;4995694;28;20030;-85
2024/04/02 07:31:28;;;;;;;9.75;2.95;;;10.90;99.90;;;;;;4993789;28;20052;-86
2024/04/02 07:33:54;;;;;;;20.73;4.03;;;11.00;99.90;;;;;;4986688;28;20019;-86
2024/04/02 07:36:20;;;;;;;12.13;2.78;;;10.10;99.90;;;;;;4977621;28;20443;-86
2024/04/02 07:38:45;;;;;;;14.25;3.28;;;10.40;99.90;;;;;;4983325;28;20030;-85
2024/04/02 07:41:14;;;;;;;11.80;3.13;;;10.20;99.90;;;;;;4978403;28;20019;-86
2024/04/02 07:43:39;;;;;;;14.70;2.55;;;10.20;99.90;;;;;;4992002;28;20057;-85
2024/04/02 07:46:05;;;;;;;13.43;3.38;;;10.70;99.90;;;;;;5004886;28;20022;-86
2024/04/02 07:48:30;;;;;;;25.52;4.63;;;10.20;99.90;;;;;;4997847;28;20755;-87
2024/04/02 07:50:58;;;;;;;13.38;3.35;;;10.30;99.90;;;;;;5002728;28;20526;-86
2024/04/02 07:53:38;;;;;;;10.63;3.25;;;11.10;99.90;;;;;;5000189;28;20108;-87
2024/04/02 07:56:04;;;;;;;13.48;3.15;;;10.80;99.90;;;;;;4998676;28;20104;-91
2024/04/02 07:58:29;;;;;;;8.95;2.72;;;10.20;99.90;;;;;;4991152;28;20050;-92
2024/04/02 08:00:55;;;;;;;14.57;4.68;;;11.10;99.90;;;;;;4986879;28;20019;-91
2024/04/02 08:03:21;;;;;;;11.40;3.58;;;10.20;99.90;;;;;;4960402;28;20155;-90
2024/04/02 08:05:55;;;;;;;19.90;3.08;;;10.30;99.90;;;;;;4971112;28;20030;-87
2024/04/02 08:08:20;;;;;;;11.90;4.10;;;10.30;99.90;;;;;;4974358;28;20035;-90
2024/04/02 08:10:46;;;;;;;12.55;3.45;;;10.30;99.90;;;;;;4975956;28;20026;-91
2024/04/02 08:13:12;;;;;;;12.07;3.80;;;10.30;99.90;;;;;;4976131;28;20055;-92
2024/04/02 08:15:38;;;;;;;16.73;3.38;;;10.30;99.90;;;;;;4976857;28;20117;-91
2024/04/02 08:18:04;;;;;;;15.68;3.47;;;10.40;99.90;;;;;;4975648;28;20031;-86
2024/04/02 08:20:29;;;;;;;8.02;2.80;;;10.40;99.90;;;;;;4974973;28;20122;-88
2024/04/02 08:22:57;;;;;;;10.07;3.20;;;11.20;99.90;;;;;;4966312;28;20416;-89
2024/04/02 08:25:28;;;;;;;13.73;4.18;;;11.40;99.90;;;;;;4975140;28;20027;-90
2024/04/02 08:27:54;;;;;;;11.30;3.10;;;11.10;99.90;;;;;;4975650;28;20023;-90
2024/04/02 08:30:19;;;;;;;13.95;3.78;;;11.50;99.90;;;;;;4975540;28;20087;-88
2024/04/02 08:32:45;;;;;;;7.55;2.95;;;10.50;99.90;;;;;;4973927;28;20558;-88
2024/04/02 08:35:11;;;;;;;6.10;2.40;;;10.50;99.90;;;;;;4974344;28;20033;-88
2024/04/02 08:37:51;;;;;;;8.75;2.60;;;10.60;99.90;;;;;;4975051;28;20114;-92
2024/04/02 08:40:31;;;;;;;6.43;2.50;;;11.10;99.90;;;;;;4975675;28;20035;-91
2024/04/02 08:43:06;;;;;;;8.00;2.43;;;11.20;99.90;;;;;;4974559;28;20026;-88
2024/04/02 08:45:32;;;;;;;9.60;3.20;;;11.40;99.90;;;;;;4973173;28;20090;-88
2024/04/02 08:47:58;;;;;;;14.13;3.03;;;10.60;99.90;;;;;;4969086;28;20030;-89
2024/04/02 08:50:24;;;;;;;8.70;2.92;;;11.20;99.90;;;;;;4960835;29;20035;-88
2024/04/02 08:52:52;;;;;;;6.30;2.88;;;11.50;99.90;;;;;;4955825;29;20027;-90
2024/04/02 08:55:39;;;;;;;12.38;2.80;;;10.80;99.90;;;;;;4957257;28;20106;-85
2024/04/02 08:58:07;;;;;;;9.52;2.25;;;10.80;99.90;;;;;;4990661;28;20054;-87
2024/04/02 09:00:32;;;;;;;8.55;2.55;;;10.80;99.90;;;;;;4992578;28;20027;-84
2024/04/02 09:02:59;;;;;;;10.77;3.17;;;10.80;99.90;;;;;;4993065;28;20037;-87
2024/04/02 09:05:31;;;;;;;11.88;2.75;;;10.80;99.90;;;;;;4993366;28;20011;-85
2024/04/02 09:07:57;;;;;;;13.35;3.28;;;11.50;99.90;;;;;;5003188;28;20046;-84
2024/04/02 09:10:28;;;;;;;11.63;3.10;;;11.00;99.90;;;;;;4991978;28;20026;-89
2024/04/02 09:12:54;;;;;;;11.73;3.53;;;10.80;99.90;;;;;;4983346;28;20101;-87
2024/04/02 09:15:38;;;;;;;16.45;4.15;;;11.70;99.90;;;;;;4990987;28;20482;-86
2024/04/02 09:18:07;;;;;;;9.55;3.35;;;10.90;99.90;;;;;;4989815;28;20030;-88
2024/04/02 09:20:51;;;;;;;10.80;3.72;;;11.80;99.90;;;;;;4991017;28;20030;-85
2024/04/02 09:23:17;;;;;;;9.02;3.00;;;10.80;99.90;;;;;;4989968;28;20034;-82
2024/04/02 09:25:50;;;;;;;15.57;4.57;;;11.60;99.90;;;;;;4985195;28;20443;-84
2024/04/02 09:28:16;;;;;;;7.43;3.53;;;10.80;99.90;;;;;;4989869;28;20093;-86
2024/04/02 09:30:42;;;;;;;10.15;3.85;;;11.40;99.90;;;;;;4986490;28;20410;-89
2024/04/02 09:33:10;;;;;;;10.52;3.72;;;11.50;99.90;;;;;;4981654;28;20026;-86
2024/04/02 09:36:05;;;;;;;12.60;3.42;;;10.70;99.90;;;;;;4984399;28;20037;-87
2024/04/02 09:38:35;;;;;;;13.35;3.42;;;10.70;99.90;;;;;;4987984;28;20035;-85
2024/04/02 09:41:02;;;;;;;13.68;4.40;;;10.70;99.90;;;;;;4991016;28;20050;-86
2024/04/02 09:43:48;;;;;;;9.65;4.60;;;10.70;99.90;;;;;;4988393;28;20027;-86
2024/04/02 09:46:16;;;;;;;16.08;4.43;;;11.40;99.90;;;;;;4980000;28;20026;-86
2024/04/02 09:48:42;;;;;;;9.02;4.75;;;12.00;99.90;;;;;;4987596;28;20033;-87
2024/04/02 09:51:09;;;;;;;11.52;4.05;;;11.00;99.90;;;;;;4986787;28;20034;-86
2024/04/02 09:53:36;;;;;;;11.00;3.83;;;10.60;99.90;;;;;;4988959;28;20038;-87
2024/04/02 09:56:23;;;;;;;9.18;4.05;;;10.60;99.90;;;;;;4985995;28;20045;-87
2024/04/02 09:58:51;;;;;;;11.43;3.78;;;9.90;99.90;;;;;;4989420;28;20069;-86
2024/04/02 10:01:21;;;;;;;7.05;3.80;;;10.50;99.90;;;;;;4983926;28;20027;-89
2024/04/02 10:03:48;;;;;;;12.18;4.78;;;10.40;99.90;;;;;;4976380;28;20474;-85
2024/04/02 10:06:23;;;;;;;16.42;5.00;;;10.40;99.90;;;;;;4971963;28;20089;-83
2024/04/02 10:08:57;;;;;;;10.75;4.63;;;11.30;99.90;;;;;;4972053;28;20031;-81
2024/04/02 10:11:23;;;;;;;9.48;4.38;;;10.40;99.90;;;;;;4973814;28;20391;-84
2024/04/02 10:13:48;;;;;;;11.52;4.90;;;10.50;99.90;;;;;;4972525;28;20041;-86
2024/04/02 10:16:14;;;;;;;16.67;6.10;;;10.40;99.90;;;;;;4987072;28;20011;-89
2024/04/02 10:19:00;;;;;;;8.90;4.88;;;11.20;99.90;;;;;;4989139;28;20117;-88
2024/04/02 10:21:25;;;;;;;13.75;5.68;;;11.90;99.90;;;;;;4992772;28;20022;-88
2024/04/02 10:23:53;;;;;;;15.90;4.70;;;10.50;99.90;;;;;;4992535;28;20034;-89
2024/04/02 10:26:19;;;;;;;8.25;4.18;;;10.50;99.90;;;;;;4990771;28;20053;-89
2024/04/02 10:28:58;;;;;;;14.95;4.40;;;10.60;99.90;;;;;;4993024;28;20046;-89
2024/04/02 10:31:41;;;;;;;10.35;5.50;;;10.60;99.90;;;;;;4993452;28;20037;-88
2024/04/02 10:34:11;;;;;;;12.90;4.63;;;10.70;99.90;;;;;;4997719;28;20045;-87
2024/04/02 10:36:38;;;;;;;20.02;5.90;;;10.70;99.90;;;;;;4995467;28;20057;-89
2024/04/02 10:39:09;;;;;;;13.73;4.85;;;10.70;99.90;;;;;;4995248;28;20069;-88
2024/04/02 10:41:38;;;;;;;12.52;5.03;;;10.70;99.90;;;;;;4995095;28;20030;-89
2024/04/02 10:44:05;;;;;;;13.05;4.60;;;10.70;99.90;;;;;;4995182;28;20023;-89
2024/04/02 10:46:31;;;;;;;14.13;4.80;;;10.80;99.90;;;;;;4995929;28;20022;-88
2024/04/02 10:49:04;;;;;;;11.95;4.13;;;10.80;99.90;;;;;;4995693;28;20475;-88
2024/04/02 10:51:31;;;;;;;12.40;4.10;;;10.80;99.90;;;;;;4978263;28;20062;-88
2024/04/02 10:53:59;;;;;;;10.80;3.88;;;10.90;99.90;;;;;;4976784;28;20042;-89
2024/04/02 10:56:25;;;;;;;13.90;4.90;;;10.90;99.90;;;;;;4993515;28;20409;-89
2024/04/02 10:58:52;;;;;;;20.52;4.53;;;10.90;99.90;;;;;;4995458;28;20034;-88
2024/04/02 11:01:18;;;;;;;11.00;4.30;;;11.00;99.90;;;;;;4995615;28;20065;-87
2024/04/02 11:03:45;;;;;;;12.90;4.35;;;11.00;99.90;;;;;;4995659;28;20061;-87
2024/04/02 11:06:10;;;;;;;14.68;3.97;;;11.10;99.90;;;;;;4986472;28;20023;-88
2024/04/02 11:08:38;;;;;;;10.05;3.60;;;11.10;99.90;;;;;;4975907;28;20423;-90
2024/04/02 11:11:04;;;;;;;12.93;3.90;;;11.10;99.90;;;;;;4967034;28;20034;-89
2024/04/02 11:13:31;;;;;;;7.22;3.13;;;11.10;99.90;;;;;;4975782;28;20030;-88
2024/04/02 11:15:57;;;;;;;16.42;5.13;;;11.10;99.90;;;;;;4975386;28;20019;-88
2024/04/02 11:18:25;;;;;;;13.30;3.95;;;11.10;99.90;;;;;;4975566;28;20711;-88
2024/04/02 11:20:58;;;;;;;8.85;3.10;;;11.10;99.90;;;;;;4976223;28;20023;-89
2024/04/02 11:26:35;;;;;;;5.10;2.67;;;11.10;99.90;;;;;;4981712;28;20042;-88
2024/04/02 11:29:05;;;;;;;7.30;2.25;;;11.20;99.90;;;;;;4975921;28;20483;-89
2024/04/02 11:31:30;;;;;;;7.47;2.77;;;11.20;99.90;;;;;;4976237;28;20042;-86
2024/04/02 11:33:56;;;;;;;3.67;2.55;;;11.30;99.90;;;;;;4976234;28;20038;-86
2024/04/02 11:36:21;;;;;;;6.57;2.95;;;11.70;99.90;;;;;;4986703;28;20030;-89
2024/04/02 11:38:47;;;;;;;6.47;2.72;;;11.40;99.90;;;;;;4978788;28;20089;-88
2024/04/02 11:41:14;;;;;;;5.43;1.98;;;11.40;99.90;;;;;;4980495;28;20031;-89
2024/04/02 11:43:40;;;;;;;6.13;3.00;;;11.50;99.90;;;;;;4995061;28;20026;-89
2024/04/02 11:46:05;;;;;;;4.30;2.38;;;11.50;99.90;;;;;;4993871;28;20125;-88
2024/04/02 11:48:31;;;;;;;7.47;2.30;;;11.50;99.90;;;;;;4974648;28;20471;-89
2024/04/02 11:50:57;;;;;;;9.73;2.63;;;11.50;99.90;;;;;;4975827;28;20027;-87
2024/04/02 11:53:23;;;;;;;9.57;2.72;;;11.50;99.90;;;;;;4975706;28;20026;-87
2024/04/02 11:55:52;;;;;;;7.05;2.15;;;12.30;99.90;;;;;;4974308;28;20045;-88
2024/04/02 12:01:06;;;;;;;15.30;3.08;;;11.60;99.90;;;;;;5002540;28;20397;-87
2024/04/02 12:03:31;;;;;;;7.00;2.78;;;11.50;99.90;;;;;;5014392;28;20076;-87
2024/04/02 12:05:57;;;;;;;7.40;3.67;;;11.40;99.90;;;;;;5013802;28;20030;-87
2024/04/02 12:08:24;;;;;;;6.82;3.67;;;11.50;99.90;;;;;;5013855;28;20030;-88
2024/04/02 12:10:49;;;;;;;4.15;3.65;;;11.30;99.90;;;;;;5000765;28;20029;-87
2024/04/02 12:13:15;;;;;;;6.30;3.88;;;12.10;99.90;;;;;;4994588;28;20022;-88
2024/04/02 12:15:41;;;;;;;9.60;4.00;;;11.20;99.90;;;;;;4994101;28;20351;-88
2024/04/02 12:18:09;;;;;;;9.18;4.22;;;11.20;99.90;;;;;;4983597;28;20050;-88
2024/04/02 12:20:35;;;;;;;11.23;4.70;;;11.70;99.90;;;;;;4996873;28;20023;-88
2024/04/02 12:23:00;;;;;;;8.02;4.00;;;11.30;99.90;;;;;;4994306;28;20041;-87
2024/04/02 12:25:38;;;;;;;7.05;3.92;;;11.90;99.90;;;;;;4989564;28;20065;-87
2024/04/02 12:28:04;;;;;;;16.88;4.93;;;12.00;99.90;;;;;;4994801;28;20049;-88
2024/04/02 12:30:29;;;;;;;10.90;4.20;;;11.00;99.90;;;;;;4993827;28;20313;-88
2024/04/02 12:32:55;;;;;;;11.30;4.50;;;11.00;99.90;;;;;;4993106;28;20034;-88
2024/04/02 12:35:20;;;;;;;8.07;4.07;;;11.00;99.90;;;;;;4994658;28;20035;-88
2024/04/02 12:37:46;;;;;;;7.07;4.25;;;11.00;99.90;;;;;;4993588;28;20109;-89
2024/04/02 12:40:13;;;;;;;11.25;4.40;;;11.00;99.90;;;;;;4988234;28;20459;-89
2024/04/02 12:42:38;;;;;;;15.98;4.78;;;12.00;99.90;;;;;;4974008;28;20114;-85
2024/04/02 12:45:05;;;;;;;19.08;5.05;;;11.80;99.90;;;;;;4974491;28;20069;-86
2024/04/02 12:47:33;;;;;;;14.30;4.57;;;11.10;99.90;;;;;;4974332;28;20039;-86
2024/04/02 12:50:00;;;;;;;10.70;4.13;;;11.60;99.90;;;;;;4975033;28;20049;-87
2024/04/02 12:52:25;;;;;;;8.02;4.18;;;11.20;99.90;;;;;;4993063;28;20089;-87
2024/04/02 12:54:53;;;;;;;16.50;4.28;;;11.20;99.90;;;;;;5001291;28;20018;-86